sensor_id;sensor_type;location;lat;lon;timestamp;P1;durP1;ratioP1;P2;durP2;ratioP2
74177;SDS011;62540;48.456;-4.456;2023-02-18T00:01:53;1.25;;;1.25;;
74177;SDS011;62540;48.456;-4.456;2023-02-18T00:04:18;3.00;;;2.00;;
74177;SDS011;62540;48.456;-4.456;2023-02-18T00:06:43;3.50;;;3.50;;
74177;SDS011;62540;48.456;-4.456;2023-02-18T00:09:09;3.25;;;2.50;;
74177;SDS011;62540;48.456;-4.456;2023-02-18T00:11:35;5.00;;;5.00;;
74177;SDS011;62540;48.456;-4.456;2023-02-18T00:14:02;3.00;;;3.00;;
74177;SDS011;62540;48.456;-4.456;2023-02-18T00:16:29;2.25;;;2.25;;
74177;SDS011;62540;48.456;-4.456;2023-02-18T00:19:02;3.50;;;2.50;;
74177;SDS011;62540;48.456;-4.456;2023-02-18T00:21:31;2.75;;;2.25;;
74177;SDS011;62540;48.456;-4.456;2023-02-18T00:23:58;3.00;;;2.00;;
74177;SDS011;62540;48.456;-4.456;2023-02-18T00:26:24;3.25;;;3.00;;
74177;SDS011;62540;48.456;-4.456;2023-02-18T00:28:49;4.00;;;4.00;;
74177;SDS011;62540;48.456;-4.456;2023-02-18T00:31:28;2.75;;;2.75;;
74177;SDS011;62540;48.456;-4.456;2023-02-18T00:33:56;2.00;;;2.00;;
74177;SDS011;62540;48.456;-4.456;2023-02-18T00:36:22;2.00;;;2.00;;
74177;SDS011;62540;48.456;-4.456;2023-02-18T00:38:49;2.00;;;2.00;;
74177;SDS011;62540;48.456;-4.456;2023-02-18T00:41:16;1.50;;;1.00;;
74177;SDS011;62540;48.456;-4.456;2023-02-18T00:43:43;1.50;;;1.50;;
74177;SDS011;62540;48.456;-4.456;2023-02-18T00:46:09;2.00;;;1.25;;
74177;SDS011;62540;48.456;-4.456;2023-02-18T00:48:34;3.00;;;3.00;;
74177;SDS011;62540;48.456;-4.456;2023-02-18T00:51:01;2.00;;;2.00;;
74177;SDS011;62540;48.456;-4.456;2023-02-18T00:53:28;2.00;;;2.00;;
74177;SDS011;62540;48.456;-4.456;2023-02-18T00:55:53;2.25;;;1.00;;
74177;SDS011;62540;48.456;-4.456;2023-02-18T00:58:19;1.75;;;1.00;;
74177;SDS011;62540;48.456;-4.456;2023-02-18T01:00:44;1.00;;;1.00;;
74177;SDS011;62540;48.456;-4.456;2023-02-18T01:03:10;1.50;;;1.25;;
74177;SDS011;62540;48.456;-4.456;2023-02-18T01:05:36;1.00;;;1.00;;
74177;SDS011;62540;48.456;-4.456;2023-02-18T01:08:02;2.00;;;1.00;;
74177;SDS011;62540;48.456;-4.456;2023-02-18T01:10:28;1.00;;;1.00;;
74177;SDS011;62540;48.456;-4.456;2023-02-18T01:12:54;1.00;;;1.00;;
74177;SDS011;62540;48.456;-4.456;2023-02-18T01:15:20;0.75;;;0.75;;
74177;SDS011;62540;48.456;-4.456;2023-02-18T01:17:46;2.00;;;1.25;;
74177;SDS011;62540;48.456;-4.456;2023-02-18T01:20:12;3.00;;;2.50;;
74177;SDS011;62540;48.456;-4.456;2023-02-18T01:22:38;1.00;;;1.00;;
74177;SDS011;62540;48.456;-4.456;2023-02-18T01:25:04;1.75;;;1.00;;
74177;SDS011;62540;48.456;-4.456;2023-02-18T01:27:29;0.00;;;0.00;;
74177;SDS011;62540;48.456;-4.456;2023-02-18T01:29:55;0.25;;;0.00;;
74177;SDS011;62540;48.456;-4.456;2023-02-18T01:32:20;2.00;;;1.50;;
74177;SDS011;62540;48.456;-4.456;2023-02-18T01:34:46;3.25;;;2.00;;
74177;SDS011;62540;48.456;-4.456;2023-02-18T01:37:12;3.00;;;1.75;;
74177;SDS011;62540;48.456;-4.456;2023-02-18T01:39:38;1.25;;;1.00;;
74177;SDS011;62540;48.456;-4.456;2023-02-18T01:42:03;1.75;;;1.00;;
74177;SDS011;62540;48.456;-4.456;2023-02-18T01:44:32;1.75;;;1.75;;
74177;SDS011;62540;48.456;-4.456;2023-02-18T01:46:58;2.75;;;1.75;;
74177;SDS011;62540;48.456;-4.456;2023-02-18T01:49:30;2.00;;;1.00;;
74177;SDS011;62540;48.456;-4.456;2023-02-18T01:51:59;1.50;;;1.00;;
74177;SDS011;62540;48.456;-4.456;2023-02-18T01:54:31;2.00;;;2.00;;
74177;SDS011;62540;48.456;-4.456;2023-02-18T01:57:08;2.25;;;2.00;;
74177;SDS011;62540;48.456;-4.456;2023-02-18T01:59:37;2.00;;;1.25;;
74177;SDS011;62540;48.456;-4.456;2023-02-18T02:02:06;1.25;;;1.25;;
74177;SDS011;62540;48.456;-4.456;2023-02-18T02:04:35;2.25;;;2.00;;
74177;SDS011;62540;48.456;-4.456;2023-02-18T02:07:01;2.00;;;1.00;;
74177;SDS011;62540;48.456;-4.456;2023-02-18T02:09:27;1.00;;;0.75;;
74177;SDS011;62540;48.456;-4.456;2023-02-18T02:31:23;1.00;;;1.00;;
74177;SDS011;62540;48.456;-4.456;2023-02-18T02:36:51;2.00;;;2.00;;
74177;SDS011;62540;48.456;-4.456;2023-02-18T02:39:33;1.00;;;1.00;;
74177;SDS011;62540;48.456;-4.456;2023-02-18T02:45:23;2.00;;;2.00;;
74177;SDS011;62540;48.456;-4.456;2023-02-18T02:48:03;2.75;;;1.75;;
74177;SDS011;62540;48.456;-4.456;2023-02-18T02:50:43;1.75;;;0.50;;
74177;SDS011;62540;48.456;-4.456;2023-02-18T02:53:22;2.50;;;2.00;;
74177;SDS011;62540;48.456;-4.456;2023-02-18T02:55:51;2.75;;;2.00;;
74177;SDS011;62540;48.456;-4.456;2023-02-18T02:58:19;1.50;;;1.00;;
74177;SDS011;62540;48.456;-4.456;2023-02-18T03:10:07;0.25;;;0.25;;
74177;SDS011;62540;48.456;-4.456;2023-02-18T03:12:47;0.00;;;0.00;;
74177;SDS011;62540;48.456;-4.456;2023-02-18T03:20:36;1.00;;;1.00;;
74177;SDS011;62540;48.456;-4.456;2023-02-18T03:23:08;1.00;;;1.00;;
74177;SDS011;62540;48.456;-4.456;2023-02-18T03:25:38;0.50;;;0.00;;
74177;SDS011;62540;48.456;-4.456;2023-02-18T03:28:05;1.00;;;0.00;;
74177;SDS011;62540;48.456;-4.456;2023-02-18T03:30:41;0.00;;;0.00;;
74177;SDS011;62540;48.456;-4.456;2023-02-18T03:33:13;1.50;;;1.00;;
74177;SDS011;62540;48.456;-4.456;2023-02-18T03:35:43;0.00;;;0.00;;
74177;SDS011;62540;48.456;-4.456;2023-02-18T03:41:08;0.00;;;0.00;;
74177;SDS011;62540;48.456;-4.456;2023-02-18T03:43:33;1.00;;;0.00;;
74177;SDS011;62540;48.456;-4.456;2023-02-18T03:45:59;2.00;;;0.00;;
74177;SDS011;62540;48.456;-4.456;2023-02-18T03:48:25;1.75;;;0.00;;
74177;SDS011;62540;48.456;-4.456;2023-02-18T03:50:50;1.00;;;0.50;;
74177;SDS011;62540;48.456;-4.456;2023-02-18T03:53:16;0.25;;;0.25;;
74177;SDS011;62540;48.456;-4.456;2023-02-18T03:55:41;0.00;;;0.00;;
74177;SDS011;62540;48.456;-4.456;2023-02-18T03:58:07;0.00;;;0.00;;
74177;SDS011;62540;48.456;-4.456;2023-02-18T04:00:32;0.00;;;0.00;;
74177;SDS011;62540;48.456;-4.456;2023-02-18T04:02:58;1.00;;;1.00;;
74177;SDS011;62540;48.456;-4.456;2023-02-18T04:05:23;1.00;;;1.00;;
74177;SDS011;62540;48.456;-4.456;2023-02-18T04:07:49;0.00;;;0.00;;
74177;SDS011;62540;48.456;-4.456;2023-02-18T04:10:14;0.00;;;0.00;;
74177;SDS011;62540;48.456;-4.456;2023-02-18T04:12:40;0.50;;;0.00;;
74177;SDS011;62540;48.456;-4.456;2023-02-18T04:15:05;0.00;;;0.00;;
74177;SDS011;62540;48.456;-4.456;2023-02-18T04:17:31;0.00;;;0.00;;
74177;SDS011;62540;48.456;-4.456;2023-02-18T04:19:57;0.00;;;0.00;;
74177;SDS011;62540;48.456;-4.456;2023-02-18T04:22:23;0.00;;;0.00;;
74177;SDS011;62540;48.456;-4.456;2023-02-18T04:24:48;0.00;;;0.00;;
74177;SDS011;62540;48.456;-4.456;2023-02-18T04:27:14;0.25;;;0.00;;
74177;SDS011;62540;48.456;-4.456;2023-02-18T04:29:39;0.00;;;0.00;;
74177;SDS011;62540;48.456;-4.456;2023-02-18T04:32:04;0.00;;;0.00;;
74177;SDS011;62540;48.456;-4.456;2023-02-18T04:34:30;0.00;;;0.00;;
74177;SDS011;62540;48.456;-4.456;2023-02-18T04:36:55;0.00;;;0.00;;
74177;SDS011;62540;48.456;-4.456;2023-02-18T04:39:21;0.00;;;0.00;;
74177;SDS011;62540;48.456;-4.456;2023-02-18T04:41:47;0.75;;;0.00;;
74177;SDS011;62540;48.456;-4.456;2023-02-18T04:44:12;0.00;;;0.00;;
74177;SDS011;62540;48.456;-4.456;2023-02-18T04:46:37;0.00;;;0.00;;
74177;SDS011;62540;48.456;-4.456;2023-02-18T04:49:03;0.00;;;0.00;;
74177;SDS011;62540;48.456;-4.456;2023-02-18T04:51:28;0.00;;;0.00;;
74177;SDS011;62540;48.456;-4.456;2023-02-18T04:53:54;0.25;;;0.00;;
74177;SDS011;62540;48.456;-4.456;2023-02-18T04:56:19;0.00;;;0.00;;
74177;SDS011;62540;48.456;-4.456;2023-02-18T04:58:44;0.00;;;0.00;;
74177;SDS011;62540;48.456;-4.456;2023-02-18T05:01:10;0.50;;;0.00;;
74177;SDS011;62540;48.456;-4.456;2023-02-18T05:03:35;0.00;;;0.00;;
74177;SDS011;62540;48.456;-4.456;2023-02-18T05:06:00;0.00;;;0.00;;
74177;SDS011;62540;48.456;-4.456;2023-02-18T05:08:27;0.50;;;0.00;;
74177;SDS011;62540;48.456;-4.456;2023-02-18T05:10:52;0.50;;;0.00;;
74177;SDS011;62540;48.456;-4.456;2023-02-18T05:13:18;0.00;;;0.00;;
74177;SDS011;62540;48.456;-4.456;2023-02-18T05:15:44;0.25;;;0.00;;
74177;SDS011;62540;48.456;-4.456;2023-02-18T05:18:09;1.75;;;1.00;;
74177;SDS011;62540;48.456;-4.456;2023-02-18T05:20:34;0.00;;;0.00;;
74177;SDS011;62540;48.456;-4.456;2023-02-18T05:23:00;1.00;;;1.00;;
74177;SDS011;62540;48.456;-4.456;2023-02-18T05:25:25;1.00;;;0.00;;
74177;SDS011;62540;48.456;-4.456;2023-02-18T05:27:51;0.00;;;0.00;;
74177;SDS011;62540;48.456;-4.456;2023-02-18T05:30:16;1.00;;;0.00;;
74177;SDS011;62540;48.456;-4.456;2023-02-18T05:32:42;1.00;;;1.00;;
74177;SDS011;62540;48.456;-4.456;2023-02-18T05:35:07;1.75;;;0.25;;
74177;SDS011;62540;48.456;-4.456;2023-02-18T05:37:33;1.00;;;0.00;;
74177;SDS011;62540;48.456;-4.456;2023-02-18T05:39:58;1.00;;;1.00;;
74177;SDS011;62540;48.456;-4.456;2023-02-18T05:42:24;0.00;;;0.00;;
74177;SDS011;62540;48.456;-4.456;2023-02-18T05:44:49;1.00;;;0.25;;
74177;SDS011;62540;48.456;-4.456;2023-02-18T05:47:14;0.50;;;0.50;;
74177;SDS011;62540;48.456;-4.456;2023-02-18T05:49:40;1.00;;;0.00;;
74177;SDS011;62540;48.456;-4.456;2023-02-18T05:52:06;1.00;;;0.00;;
74177;SDS011;62540;48.456;-4.456;2023-02-18T05:54:33;0.00;;;0.00;;
74177;SDS011;62540;48.456;-4.456;2023-02-18T05:56:59;0.50;;;0.00;;
74177;SDS011;62540;48.456;-4.456;2023-02-18T05:59:25;0.50;;;0.00;;
74177;SDS011;62540;48.456;-4.456;2023-02-18T06:01:51;0.00;;;0.00;;
74177;SDS011;62540;48.456;-4.456;2023-02-18T06:04:16;0.00;;;0.00;;
74177;SDS011;62540;48.456;-4.456;2023-02-18T06:06:41;2.25;;;0.75;;
74177;SDS011;62540;48.456;-4.456;2023-02-18T06:09:07;1.00;;;0.00;;
74177;SDS011;62540;48.456;-4.456;2023-02-18T06:11:33;1.00;;;0.00;;
74177;SDS011;62540;48.456;-4.456;2023-02-18T06:13:59;0.50;;;0.25;;
74177;SDS011;62540;48.456;-4.456;2023-02-18T06:16:25;1.50;;;0.00;;
74177;SDS011;62540;48.456;-4.456;2023-02-18T06:18:50;0.25;;;0.25;;
74177;SDS011;62540;48.456;-4.456;2023-02-18T06:21:15;1.00;;;0.00;;
74177;SDS011;62540;48.456;-4.456;2023-02-18T06:23:41;0.00;;;0.00;;
74177;SDS011;62540;48.456;-4.456;2023-02-18T06:26:06;0.00;;;0.00;;
74177;SDS011;62540;48.456;-4.456;2023-02-18T06:28:32;2.00;;;0.75;;
74177;SDS011;62540;48.456;-4.456;2023-02-18T06:30:57;1.00;;;1.00;;
74177;SDS011;62540;48.456;-4.456;2023-02-18T06:33:23;1.00;;;1.00;;
74177;SDS011;62540;48.456;-4.456;2023-02-18T06:35:52;1.00;;;1.00;;
74177;SDS011;62540;48.456;-4.456;2023-02-18T06:38:19;1.00;;;0.00;;
74177;SDS011;62540;48.456;-4.456;2023-02-18T06:40:45;0.00;;;0.00;;
74177;SDS011;62540;48.456;-4.456;2023-02-18T06:43:11;3.00;;;1.00;;
74177;SDS011;62540;48.456;-4.456;2023-02-18T06:45:37;0.50;;;0.00;;
74177;SDS011;62540;48.456;-4.456;2023-02-18T06:48:03;0.50;;;0.00;;
74177;SDS011;62540;48.456;-4.456;2023-02-18T06:50:29;0.75;;;0.00;;
74177;SDS011;62540;48.456;-4.456;2023-02-18T06:52:54;1.00;;;0.00;;
74177;SDS011;62540;48.456;-4.456;2023-02-18T06:55:19;0.00;;;0.00;;
74177;SDS011;62540;48.456;-4.456;2023-02-18T06:57:45;0.00;;;0.00;;
74177;SDS011;62540;48.456;-4.456;2023-02-18T07:00:10;0.00;;;0.00;;
74177;SDS011;62540;48.456;-4.456;2023-02-18T07:02:36;1.00;;;0.00;;
74177;SDS011;62540;48.456;-4.456;2023-02-18T07:05:01;0.00;;;0.00;;
74177;SDS011;62540;48.456;-4.456;2023-02-18T07:07:27;1.00;;;1.00;;
74177;SDS011;62540;48.456;-4.456;2023-02-18T07:09:52;0.00;;;0.00;;
74177;SDS011;62540;48.456;-4.456;2023-02-18T07:12:18;0.25;;;0.00;;
74177;SDS011;62540;48.456;-4.456;2023-02-18T07:14:43;0.00;;;0.00;;
74177;SDS011;62540;48.456;-4.456;2023-02-18T07:17:09;2.00;;;0.00;;
74177;SDS011;62540;48.456;-4.456;2023-02-18T07:19:34;0.00;;;0.00;;
74177;SDS011;62540;48.456;-4.456;2023-02-18T07:22:00;0.00;;;0.00;;
74177;SDS011;62540;48.456;-4.456;2023-02-18T07:24:25;0.00;;;0.00;;
74177;SDS011;62540;48.456;-4.456;2023-02-18T07:26:51;1.00;;;0.00;;
74177;SDS011;62540;48.456;-4.456;2023-02-18T07:29:16;0.00;;;0.00;;
74177;SDS011;62540;48.456;-4.456;2023-02-18T07:31:41;1.00;;;1.00;;
74177;SDS011;62540;48.456;-4.456;2023-02-18T07:34:07;1.00;;;0.50;;
74177;SDS011;62540;48.456;-4.456;2023-02-18T07:36:32;1.00;;;0.25;;
74177;SDS011;62540;48.456;-4.456;2023-02-18T07:38:58;0.00;;;0.00;;
74177;SDS011;62540;48.456;-4.456;2023-02-18T07:41:23;1.00;;;0.75;;
74177;SDS011;62540;48.456;-4.456;2023-02-18T07:43:49;0.00;;;0.00;;
74177;SDS011;62540;48.456;-4.456;2023-02-18T07:46:14;0.00;;;0.00;;
74177;SDS011;62540;48.456;-4.456;2023-02-18T07:48:40;1.00;;;1.00;;
74177;SDS011;62540;48.456;-4.456;2023-02-18T07:51:07;1.00;;;0.00;;
74177;SDS011;62540;48.456;-4.456;2023-02-18T07:53:35;1.50;;;1.00;;
74177;SDS011;62540;48.456;-4.456;2023-02-18T07:56:01;0.00;;;0.00;;
74177;SDS011;62540;48.456;-4.456;2023-02-18T07:58:28;0.00;;;0.00;;
74177;SDS011;62540;48.456;-4.456;2023-02-18T08:00:55;1.25;;;0.50;;
74177;SDS011;62540;48.456;-4.456;2023-02-18T08:03:22;0.25;;;0.00;;
74177;SDS011;62540;48.456;-4.456;2023-02-18T08:05:49;0.00;;;0.00;;
74177;SDS011;62540;48.456;-4.456;2023-02-18T08:08:17;0.00;;;0.00;;
74177;SDS011;62540;48.456;-4.456;2023-02-18T08:10:44;1.00;;;0.00;;
74177;SDS011;62540;48.456;-4.456;2023-02-18T08:13:10;0.00;;;0.00;;
74177;SDS011;62540;48.456;-4.456;2023-02-18T08:15:36;1.00;;;0.00;;
74177;SDS011;62540;48.456;-4.456;2023-02-18T08:18:01;1.75;;;1.00;;
74177;SDS011;62540;48.456;-4.456;2023-02-18T08:20:27;0.00;;;0.00;;
74177;SDS011;62540;48.456;-4.456;2023-02-18T08:22:53;0.50;;;0.25;;
74177;SDS011;62540;48.456;-4.456;2023-02-18T08:25:19;1.00;;;1.00;;
74177;SDS011;62540;48.456;-4.456;2023-02-18T08:27:44;1.00;;;1.00;;
74177;SDS011;62540;48.456;-4.456;2023-02-18T08:30:10;1.00;;;1.00;;
74177;SDS011;62540;48.456;-4.456;2023-02-18T08:32:35;0.00;;;0.00;;
74177;SDS011;62540;48.456;-4.456;2023-02-18T08:35:01;0.00;;;0.00;;
74177;SDS011;62540;48.456;-4.456;2023-02-18T08:37:27;1.00;;;0.75;;
74177;SDS011;62540;48.456;-4.456;2023-02-18T08:39:52;0.00;;;0.00;;
74177;SDS011;62540;48.456;-4.456;2023-02-18T08:42:18;1.00;;;1.00;;
74177;SDS011;62540;48.456;-4.456;2023-02-18T08:44:43;0.00;;;0.00;;
74177;SDS011;62540;48.456;-4.456;2023-02-18T08:47:08;0.00;;;0.00;;
74177;SDS011;62540;48.456;-4.456;2023-02-18T08:49:34;0.00;;;0.00;;
74177;SDS011;62540;48.456;-4.456;2023-02-18T08:52:01;2.00;;;0.00;;
74177;SDS011;62540;48.456;-4.456;2023-02-18T08:54:27;1.00;;;1.00;;
74177;SDS011;62540;48.456;-4.456;2023-02-18T08:56:55;1.00;;;0.00;;
74177;SDS011;62540;48.456;-4.456;2023-02-18T08:59:24;0.75;;;0.00;;
74177;SDS011;62540;48.456;-4.456;2023-02-18T09:01:50;0.00;;;0.00;;
74177;SDS011;62540;48.456;-4.456;2023-02-18T09:04:15;1.00;;;0.00;;
74177;SDS011;62540;48.456;-4.456;2023-02-18T09:06:41;0.00;;;0.00;;
74177;SDS011;62540;48.456;-4.456;2023-02-18T09:09:06;1.75;;;0.00;;
74177;SDS011;62540;48.456;-4.456;2023-02-18T09:11:33;0.00;;;0.00;;
74177;SDS011;62540;48.456;-4.456;2023-02-18T09:13:58;0.00;;;0.00;;
74177;SDS011;62540;48.456;-4.456;2023-02-18T09:16:24;0.00;;;0.00;;
74177;SDS011;62540;48.456;-4.456;2023-02-18T09:18:50;0.00;;;0.00;;
74177;SDS011;62540;48.456;-4.456;2023-02-18T09:21:16;0.00;;;0.00;;
74177;SDS011;62540;48.456;-4.456;2023-02-18T09:23:44;0.00;;;0.00;;
74177;SDS011;62540;48.456;-4.456;2023-02-18T09:26:12;0.00;;;0.00;;
74177;SDS011;62540;48.456;-4.456;2023-02-18T09:28:38;0.75;;;0.00;;
74177;SDS011;62540;48.456;-4.456;2023-02-18T09:31:14;0.00;;;0.00;;
74177;SDS011;62540;48.456;-4.456;2023-02-18T09:33:46;0.00;;;0.00;;
74177;SDS011;62540;48.456;-4.456;2023-02-18T09:36:14;0.00;;;0.00;;
74177;SDS011;62540;48.456;-4.456;2023-02-18T09:38:41;0.00;;;0.00;;
74177;SDS011;62540;48.456;-4.456;2023-02-18T09:41:08;0.00;;;0.00;;
74177;SDS011;62540;48.456;-4.456;2023-02-18T09:43:45;0.00;;;0.00;;
74177;SDS011;62540;48.456;-4.456;2023-02-18T09:49:11;0.00;;;0.00;;
74177;SDS011;62540;48.456;-4.456;2023-02-18T09:51:40;0.00;;;0.00;;
74177;SDS011;62540;48.456;-4.456;2023-02-18T09:54:09;1.25;;;0.00;;
74177;SDS011;62540;48.456;-4.456;2023-02-18T09:56:36;0.75;;;0.75;;
74177;SDS011;62540;48.456;-4.456;2023-02-18T09:59:05;0.00;;;0.00;;
74177;SDS011;62540;48.456;-4.456;2023-02-18T10:01:36;0.00;;;0.00;;
74177;SDS011;62540;48.456;-4.456;2023-02-18T10:04:06;1.00;;;0.00;;
74177;SDS011;62540;48.456;-4.456;2023-02-18T10:06:38;0.00;;;0.00;;
74177;SDS011;62540;48.456;-4.456;2023-02-18T10:09:13;0.00;;;0.00;;
74177;SDS011;62540;48.456;-4.456;2023-02-18T10:11:45;0.00;;;0.00;;
74177;SDS011;62540;48.456;-4.456;2023-02-18T10:14:14;0.00;;;0.00;;
74177;SDS011;62540;48.456;-4.456;2023-02-18T10:16:40;0.00;;;0.00;;
74177;SDS011;62540;48.456;-4.456;2023-02-18T10:22:12;0.00;;;0.00;;
74177;SDS011;62540;48.456;-4.456;2023-02-18T10:25:01;0.00;;;0.00;;
74177;SDS011;62540;48.456;-4.456;2023-02-18T10:27:30;0.00;;;0.00;;
74177;SDS011;62540;48.456;-4.456;2023-02-18T10:29:59;0.00;;;0.00;;
74177;SDS011;62540;48.456;-4.456;2023-02-18T10:32:30;0.00;;;0.00;;
74177;SDS011;62540;48.456;-4.456;2023-02-18T10:35:02;0.00;;;0.00;;
74177;SDS011;62540;48.456;-4.456;2023-02-18T10:37:56;0.50;;;0.00;;
74177;SDS011;62540;48.456;-4.456;2023-02-18T10:46:02;0.00;;;0.00;;
74177;SDS011;62540;48.456;-4.456;2023-02-18T10:51:14;0.00;;;0.00;;
74177;SDS011;62540;48.456;-4.456;2023-02-18T10:53:45;0.00;;;0.00;;
74177;SDS011;62540;48.456;-4.456;2023-02-18T10:59:14;0.00;;;0.00;;
74177;SDS011;62540;48.456;-4.456;2023-02-18T11:01:44;0.00;;;0.00;;
74177;SDS011;62540;48.456;-4.456;2023-02-18T11:04:11;0.00;;;0.00;;
74177;SDS011;62540;48.456;-4.456;2023-02-18T11:06:40;0.00;;;0.00;;
74177;SDS011;62540;48.456;-4.456;2023-02-18T11:09:33;0.00;;;0.00;;
74177;SDS011;62540;48.456;-4.456;2023-02-18T11:12:10;0.00;;;0.00;;
74177;SDS011;62540;48.456;-4.456;2023-02-18T11:14:45;0.00;;;0.00;;
74177;SDS011;62540;48.456;-4.456;2023-02-18T11:17:25;0.00;;;0.00;;
74177;SDS011;62540;48.456;-4.456;2023-02-18T11:19:57;0.00;;;0.00;;
74177;SDS011;62540;48.456;-4.456;2023-02-18T11:22:32;0.00;;;0.00;;
74177;SDS011;62540;48.456;-4.456;2023-02-18T11:25:02;0.00;;;0.00;;
74177;SDS011;62540;48.456;-4.456;2023-02-18T11:27:42;2.00;;;0.00;;
74177;SDS011;62540;48.456;-4.456;2023-02-18T11:32:45;0.00;;;0.00;;
74177;SDS011;62540;48.456;-4.456;2023-02-18T11:35:21;0.00;;;0.00;;
74177;SDS011;62540;48.456;-4.456;2023-02-18T11:37:49;0.00;;;0.00;;
74177;SDS011;62540;48.456;-4.456;2023-02-18T11:40:28;0.00;;;0.00;;
74177;SDS011;62540;48.456;-4.456;2023-02-18T11:43:10;0.00;;;0.00;;
74177;SDS011;62540;48.456;-4.456;2023-02-18T11:45:39;0.00;;;0.00;;
74177;SDS011;62540;48.456;-4.456;2023-02-18T11:48:13;0.00;;;0.00;;
74177;SDS011;62540;48.456;-4.456;2023-02-18T11:50:41;0.00;;;0.00;;
74177;SDS011;62540;48.456;-4.456;2023-02-18T11:56:03;1.25;;;1.25;;
74177;SDS011;62540;48.456;-4.456;2023-02-18T11:58:37;2.00;;;2.00;;
74177;SDS011;62540;48.456;-4.456;2023-02-18T12:01:17;0.50;;;0.50;;
74177;SDS011;62540;48.456;-4.456;2023-02-18T12:03:55;0.50;;;0.50;;
74177;SDS011;62540;48.456;-4.456;2023-02-18T12:06:34;0.75;;;0.75;;
74177;SDS011;62540;48.456;-4.456;2023-02-18T12:09:49;2.00;;;2.00;;
74177;SDS011;62540;48.456;-4.456;2023-02-18T12:11:53;1.25;;;1.25;;
74177;SDS011;62540;48.456;-4.456;2023-02-18T12:14:22;1.25;;;1.25;;
74177;SDS011;62540;48.456;-4.456;2023-02-18T12:30:35;0.00;;;0.00;;
74177;SDS011;62540;48.456;-4.456;2023-02-18T12:49:49;0.00;;;0.00;;
74177;SDS011;62540;48.456;-4.456;2023-02-18T12:57:46;0.00;;;0.00;;
74177;SDS011;62540;48.456;-4.456;2023-02-18T13:05:36;0.00;;;0.00;;
74177;SDS011;62540;48.456;-4.456;2023-02-18T13:08:11;0.75;;;0.75;;
74177;SDS011;62540;48.456;-4.456;2023-02-18T13:16:24;0.00;;;0.00;;
74177;SDS011;62540;48.456;-4.456;2023-02-18T13:21:42;0.50;;;0.50;;
74177;SDS011;62540;48.456;-4.456;2023-02-18T13:24:13;0.50;;;0.50;;
74177;SDS011;62540;48.456;-4.456;2023-02-18T13:26:50;1.75;;;1.25;;
74177;SDS011;62540;48.456;-4.456;2023-02-18T13:29:30;0.75;;;0.50;;
74177;SDS011;62540;48.456;-4.456;2023-02-18T13:35:15;0.25;;;0.25;;
74177;SDS011;62540;48.456;-4.456;2023-02-18T13:40:50;0.00;;;0.00;;
74177;SDS011;62540;48.456;-4.456;2023-02-18T13:48:33;1.00;;;1.00;;
74177;SDS011;62540;48.456;-4.456;2023-02-18T13:51:31;0.00;;;0.00;;
74177;SDS011;62540;48.456;-4.456;2023-02-18T13:54:11;0.00;;;0.00;;
74177;SDS011;62540;48.456;-4.456;2023-02-18T13:59:45;0.00;;;0.00;;
74177;SDS011;62540;48.456;-4.456;2023-02-18T14:09:43;0.75;;;0.75;;
74177;SDS011;62540;48.456;-4.456;2023-02-18T14:15:00;0.00;;;0.00;;
74177;SDS011;62540;48.456;-4.456;2023-02-18T14:17:28;0.00;;;0.00;;
74177;SDS011;62540;48.456;-4.456;2023-02-18T14:22:28;0.25;;;0.00;;
74177;SDS011;62540;48.456;-4.456;2023-02-18T14:25:01;0.00;;;0.00;;
74177;SDS011;62540;48.456;-4.456;2023-02-18T14:27:32;0.00;;;0.00;;
74177;SDS011;62540;48.456;-4.456;2023-02-18T14:30:18;0.75;;;0.25;;
74177;SDS011;62540;48.456;-4.456;2023-02-18T14:32:50;0.00;;;0.00;;
74177;SDS011;62540;48.456;-4.456;2023-02-18T14:35:29;0.25;;;0.00;;
74177;SDS011;62540;48.456;-4.456;2023-02-18T14:51:14;0.50;;;0.25;;
74177;SDS011;62540;48.456;-4.456;2023-02-18T14:53:43;0.00;;;0.00;;
74177;SDS011;62540;48.456;-4.456;2023-02-18T14:56:09;0.00;;;0.00;;
74177;SDS011;62540;48.456;-4.456;2023-02-18T14:58:40;0.50;;;0.00;;
74177;SDS011;62540;48.456;-4.456;2023-02-18T15:03:40;0.00;;;0.00;;
74177;SDS011;62540;48.456;-4.456;2023-02-18T15:06:20;0.25;;;0.25;;
74177;SDS011;62540;48.456;-4.456;2023-02-18T15:09:22;0.00;;;0.00;;
74177;SDS011;62540;48.456;-4.456;2023-02-18T15:11:51;0.00;;;0.00;;
74177;SDS011;62540;48.456;-4.456;2023-02-18T15:14:25;0.00;;;0.00;;
74177;SDS011;62540;48.456;-4.456;2023-02-18T15:16:54;0.00;;;0.00;;
74177;SDS011;62540;48.456;-4.456;2023-02-18T15:19:22;0.25;;;0.25;;
74177;SDS011;62540;48.456;-4.456;2023-02-18T15:21:50;0.00;;;0.00;;
74177;SDS011;62540;48.456;-4.456;2023-02-18T15:24:26;0.00;;;0.00;;
74177;SDS011;62540;48.456;-4.456;2023-02-18T15:26:58;0.25;;;0.25;;
74177;SDS011;62540;48.456;-4.456;2023-02-18T15:29:32;0.00;;;0.00;;
74177;SDS011;62540;48.456;-4.456;2023-02-18T15:31:59;1.00;;;1.00;;
74177;SDS011;62540;48.456;-4.456;2023-02-18T15:36:55;2.00;;;2.00;;
74177;SDS011;62540;48.456;-4.456;2023-02-18T15:39:22;2.25;;;2.00;;
74177;SDS011;62540;48.456;-4.456;2023-02-18T15:41:52;2.75;;;2.00;;
74177;SDS011;62540;48.456;-4.456;2023-02-18T15:44:24;2.00;;;2.00;;
74177;SDS011;62540;48.456;-4.456;2023-02-18T15:46:53;1.75;;;1.00;;
74177;SDS011;62540;48.456;-4.456;2023-02-18T15:49:19;1.50;;;1.50;;
74177;SDS011;62540;48.456;-4.456;2023-02-18T15:51:47;1.00;;;1.00;;
74177;SDS011;62540;48.456;-4.456;2023-02-18T15:54:19;2.50;;;2.00;;
74177;SDS011;62540;48.456;-4.456;2023-02-18T15:56:50;1.25;;;1.25;;
74177;SDS011;62540;48.456;-4.456;2023-02-18T15:59:34;2.00;;;1.75;;
74177;SDS011;62540;48.456;-4.456;2023-02-18T16:04:32;2.00;;;2.00;;
74177;SDS011;62540;48.456;-4.456;2023-02-18T16:07:02;0.75;;;0.75;;
74177;SDS011;62540;48.456;-4.456;2023-02-18T16:09:42;1.00;;;1.00;;
74177;SDS011;62540;48.456;-4.456;2023-02-18T16:12:12;1.50;;;1.00;;
74177;SDS011;62540;48.456;-4.456;2023-02-18T16:14:50;2.00;;;2.00;;
74177;SDS011;62540;48.456;-4.456;2023-02-18T16:17:22;3.00;;;2.00;;
74177;SDS011;62540;48.456;-4.456;2023-02-18T16:19:54;4.00;;;1.75;;
74177;SDS011;62540;48.456;-4.456;2023-02-18T16:24:47;3.50;;;3.00;;
74177;SDS011;62540;48.456;-4.456;2023-02-18T16:27:15;2.00;;;2.00;;
74177;SDS011;62540;48.456;-4.456;2023-02-18T16:29:41;4.00;;;3.00;;
74177;SDS011;62540;48.456;-4.456;2023-02-18T16:32:07;2.00;;;1.50;;
74177;SDS011;62540;48.456;-4.456;2023-02-18T16:34:33;4.25;;;3.50;;
74177;SDS011;62540;48.456;-4.456;2023-02-18T16:36:59;3.00;;;2.25;;
74177;SDS011;62540;48.456;-4.456;2023-02-18T16:39:44;2.00;;;2.00;;
74177;SDS011;62540;48.456;-4.456;2023-02-18T16:42:10;1.75;;;1.25;;
74177;SDS011;62540;48.456;-4.456;2023-02-18T16:44:36;2.50;;;2.50;;
74177;SDS011;62540;48.456;-4.456;2023-02-18T16:47:02;1.75;;;1.75;;
74177;SDS011;62540;48.456;-4.456;2023-02-18T16:49:28;2.00;;;2.00;;
74177;SDS011;62540;48.456;-4.456;2023-02-18T16:51:54;2.75;;;2.25;;
74177;SDS011;62540;48.456;-4.456;2023-02-18T16:54:20;2.75;;;2.00;;
74177;SDS011;62540;48.456;-4.456;2023-02-18T16:56:45;4.00;;;3.00;;
74177;SDS011;62540;48.456;-4.456;2023-02-18T16:59:11;2.25;;;2.25;;
74177;SDS011;62540;48.456;-4.456;2023-02-18T17:01:40;3.00;;;3.00;;
74177;SDS011;62540;48.456;-4.456;2023-02-18T17:04:12;2.75;;;2.75;;
74177;SDS011;62540;48.456;-4.456;2023-02-18T17:06:39;3.75;;;3.00;;
74177;SDS011;62540;48.456;-4.456;2023-02-18T17:09:12;3.00;;;3.00;;
74177;SDS011;62540;48.456;-4.456;2023-02-18T17:11:44;1.75;;;1.25;;
74177;SDS011;62540;48.456;-4.456;2023-02-18T17:14:18;2.50;;;2.00;;
74177;SDS011;62540;48.456;-4.456;2023-02-18T17:16:48;3.50;;;2.50;;
74177;SDS011;62540;48.456;-4.456;2023-02-18T17:19:16;2.50;;;2.50;;
74177;SDS011;62540;48.456;-4.456;2023-02-18T17:21:42;3.00;;;3.00;;
74177;SDS011;62540;48.456;-4.456;2023-02-18T17:24:11;3.25;;;3.00;;
74177;SDS011;62540;48.456;-4.456;2023-02-18T17:26:36;2.25;;;2.25;;
74177;SDS011;62540;48.456;-4.456;2023-02-18T17:29:02;3.00;;;3.00;;